Time;durP1;ratioP1;P1;durP2;ratioP2;P2;SDS_P1;SDS_P2;PMS_P1;PMS_P2;Temp;Humidity;BMP_temperature;BMP_pressure;BME280_temperature;BME280_humidity;BME280_pressure;Samples;Min_cycle;Max_cycle;Signal;HPM_P1;HPM_P2
2021/01/19 06:01:12;;;;;;;6.27;4.37;;;3.40;97.30;;;;;;5774068;23;20500;-72
2021/01/19 06:03:55;;;;;;;4.53;3.87;;;3.50;97.30;;;;;;4900030;29;20441;-72
2021/01/19 06:06:26;;;;;;;7.30;4.07;;;3.40;97.30;;;;;;4899782;29;20420;-72
2021/01/19 06:09:04;;;;;;;6.17;4.77;;;3.40;97.30;;;;;;4899567;29;20477;-71
2021/01/19 06:11:31;;;;;;;10.27;4.43;;;3.50;97.30;;;;;;4899220;29;20461;-72
2021/01/19 06:13:57;;;;;;;9.50;4.93;;;3.40;97.30;;;;;;4899344;29;20441;-72
2021/01/19 06:16:26;;;;;;;6.57;4.70;;;3.40;97.30;;;;;;4899471;29;20476;-72
2021/01/19 06:18:55;;;;;;;10.30;4.77;;;3.40;97.30;;;;;;4900508;29;20426;-71
2021/01/19 06:21:34;;;;;;;9.90;4.40;;;3.40;97.30;;;;;;4898956;29;20908;-71
2021/01/19 06:24:00;;;;;;;7.77;4.70;;;3.50;97.30;;;;;;4899195;29;20433;-71
2021/01/19 06:26:27;;;;;;;7.07;4.70;;;3.40;97.30;;;;;;4900243;29;20422;-71
2021/01/19 06:28:53;;;;;;;10.00;5.50;;;3.40;97.30;;;;;;4898832;29;21026;-71
2021/01/19 06:31:23;;;;;;;8.00;5.03;;;3.40;97.30;;;;;;4897153;29;20486;-71
2021/01/19 06:33:50;;;;;;;9.50;5.10;;;3.50;97.30;;;;;;4898554;29;20445;-71
2021/01/19 06:36:18;;;;;;;7.20;5.10;;;3.50;97.30;;;;;;4900042;29;20413;-70
2021/01/19 06:38:49;;;;;;;8.37;5.17;;;3.50;97.30;;;;;;4898618;29;20421;-71
2021/01/19 06:41:17;;;;;;;13.03;5.17;;;3.50;97.30;;;;;;4898663;29;20454;-71
2021/01/19 06:43:57;;;;;;;8.83;4.50;;;3.50;97.30;;;;;;4900034;29;20425;-71
2021/01/19 06:46:28;;;;;;;7.87;4.97;;;3.50;97.30;;;;;;4898297;29;20939;-71
2021/01/19 06:49:00;;;;;;;10.67;4.50;;;3.50;97.30;;;;;;4898154;29;20469;-71
2021/01/19 06:51:27;;;;;;;8.70;5.10;;;3.50;97.30;;;;;;4899417;29;20430;-71
2021/01/19 06:54:07;;;;;;;6.70;4.60;;;3.50;97.30;;;;;;4898131;29;20465;-70
2021/01/19 06:56:37;;;;;;;7.90;5.00;;;3.50;97.30;;;;;;4898285;29;20425;-72
2021/01/19 06:59:07;;;;;;;10.80;5.07;;;3.50;97.30;;;;;;4898102;29;20970;-71
2021/01/19 07:01:42;;;;;;;8.13;4.83;;;3.50;97.30;;;;;;4897701;29;20457;-71
2021/01/19 07:04:25;;;;;;;6.07;4.37;;;3.50;97.30;;;;;;4897954;29;20770;-71
2021/01/19 07:07:13;;;;;;;7.50;4.90;;;3.50;97.30;;;;;;4898312;29;20943;-73
2021/01/19 07:10:07;;;;;;;7.80;4.30;;;3.50;97.30;;;;;;4897156;29;20409;-75
2021/01/19 07:12:55;;;;;;;8.27;4.13;;;3.50;97.30;;;;;;4898978;29;20508;-72
2021/01/19 07:15:42;;;;;;;12.23;5.03;;;3.50;97.30;;;;;;4898896;29;20938;-71
2021/01/19 07:18:37;;;;;;;10.50;4.43;;;3.50;97.30;;;;;;4898165;29;20807;-71
2021/01/19 07:21:04;;;;;;;8.17;4.73;;;3.40;97.30;;;;;;4897801;29;20509;-72
2021/01/19 07:23:45;;;;;;;6.67;4.43;;;3.50;97.30;;;;;;4898403;29;20959;-72
2021/01/19 07:26:18;;;;;;;9.03;4.07;;;3.40;97.30;;;;;;4898014;29;20457;-72
2021/01/19 07:28:44;;;;;;;9.97;4.40;;;3.40;97.30;;;;;;4898293;29;20464;-72
2021/01/19 07:31:18;;;;;;;6.43;3.93;;;3.40;97.30;;;;;;4897857;29;20449;-73
2021/01/19 07:33:49;;;;;;;6.47;3.50;;;3.40;97.30;;;;;;4898228;29;20425;-72
2021/01/19 07:36:17;;;;;;;8.00;3.53;;;3.50;97.30;;;;;;4897901;29;20452;-72
2021/01/19 07:38:44;;;;;;;8.80;3.73;;;3.50;97.30;;;;;;4897684;29;20474;-70
2021/01/19 07:41:12;;;;;;;4.37;3.17;;;3.50;97.30;;;;;;4897223;29;20445;-71
2021/01/19 07:43:39;;;;;;;6.30;3.80;;;3.50;97.30;;;;;;4896846;29;20464;-71
2021/01/19 07:46:06;;;;;;;9.90;4.57;;;3.50;97.30;;;;;;4896865;29;20480;-71
2021/01/19 07:48:36;;;;;;;5.30;2.97;;;3.50;97.30;;;;;;4897195;29;20944;-71
2021/01/19 07:51:17;;;;;;;4.50;3.40;;;3.50;97.30;;;;;;4897264;29;20578;-71
2021/01/19 07:53:51;;;;;;;9.70;3.70;;;3.50;97.30;;;;;;4895895;29;20552;-73
2021/01/19 07:56:24;;;;;;;11.03;4.33;;;3.50;97.30;;;;;;4897115;29;20505;-71
2021/01/19 07:58:51;;;;;;;8.33;3.80;;;3.60;97.30;;;;;;4895233;29;21030;-71
2021/01/19 08:01:27;;;;;;;9.23;3.50;;;3.60;97.30;;;;;;4896717;29;20470;-71
2021/01/19 08:03:53;;;;;;;9.03;4.10;;;3.60;97.30;;;;;;4895540;29;20516;-71
2021/01/19 08:06:32;;;;;;;7.27;3.67;;;3.60;97.30;;;;;;4897333;29;20433;-71
2021/01/19 08:09:15;;;;;;;4.17;3.33;;;3.60;97.30;;;;;;4897104;29;20556;-70
2021/01/19 08:11:46;;;;;;;5.90;3.90;;;3.70;97.30;;;;;;4896351;29;20437;-71
2021/01/19 08:14:12;;;;;;;6.53;2.93;;;3.70;97.30;;;;;;4896845;29;20467;-70
2021/01/19 08:16:42;;;;;;;3.67;2.80;;;3.70;97.30;;;;;;4898533;29;20433;-70
2021/01/19 08:19:07;;;;;;;7.20;2.93;;;3.70;97.30;;;;;;4897262;29;20425;-70
2021/01/19 08:21:54;;;;;;;5.67;3.70;;;3.70;97.30;;;;;;4895710;29;20441;-71
2021/01/19 08:24:24;;;;;;;4.47;2.87;;;3.70;97.30;;;;;;4895621;29;20197;-71
2021/01/19 08:26:51;;;;;;;5.03;3.10;;;3.70;97.30;;;;;;4896123;29;20417;-71
2021/01/19 08:29:20;;;;;;;7.70;3.37;;;3.70;97.30;;;;;;4896067;29;20465;-71
2021/01/19 08:31:54;;;;;;;4.80;2.80;;;3.70;97.30;;;;;;4895801;29;20441;-71
2021/01/19 08:34:22;;;;;;;4.47;2.53;;;3.80;97.30;;;;;;4895911;29;20432;-70
2021/01/19 08:36:49;;;;;;;3.23;2.67;;;3.80;97.30;;;;;;4895560;29;20413;-72
2021/01/19 08:39:17;;;;;;;3.97;2.33;;;3.80;97.30;;;;;;4896956;29;20912;-71
2021/01/19 08:41:45;;;;;;;3.53;3.00;;;3.80;97.30;;;;;;4896737;29;20441;-70
2021/01/19 08:44:12;;;;;;;4.87;3.47;;;3.80;97.30;;;;;;4897132;29;20432;-71
2021/01/19 08:46:39;;;;;;;5.73;2.90;;;3.90;97.30;;;;;;4897053;29;21129;-71
2021/01/19 08:49:10;;;;;;;6.83;2.63;;;3.90;97.30;;;;;;4897041;29;20560;-71
2021/01/19 08:51:41;;;;;;;4.90;2.90;;;3.90;97.30;;;;;;4895131;29;20520;-72
2021/01/19 08:54:10;;;;;;;4.33;2.83;;;3.90;97.30;;;;;;4898508;29;20785;-70
2021/01/19 08:56:41;;;;;;;9.93;3.43;;;3.90;97.30;;;;;;4903887;29;20914;-71
2021/01/19 08:59:07;;;;;;;3.80;2.50;;;3.90;97.30;;;;;;4903959;29;20429;-71
2021/01/19 09:01:33;;;;;;;6.30;2.73;;;3.90;97.30;;;;;;4903756;29;20818;-71
2021/01/19 09:04:00;;;;;;;5.43;2.77;;;3.90;97.30;;;;;;4903967;29;20420;-72
2021/01/19 09:06:26;;;;;;;8.17;2.83;;;3.90;97.30;;;;;;4902797;29;20866;-71
2021/01/19 09:08:56;;;;;;;6.83;2.87;;;3.90;97.30;;;;;;4934575;29;21046;-71
2021/01/19 09:11:28;;;;;;;4.10;2.60;;;3.90;97.30;;;;;;4902495;29;20437;-70
2021/01/19 09:14:08;;;;;;;12.00;2.70;;;3.90;97.30;;;;;;4902879;29;20520;-72
2021/01/19 09:16:35;;;;;;;6.53;2.60;;;4.00;97.30;;;;;;4901962;29;20815;-73
2021/01/19 09:19:04;;;;;;;5.50;3.20;;;4.00;97.30;;;;;;4903048;29;20931;-71
2021/01/19 09:21:30;;;;;;;13.07;2.63;;;3.90;97.30;;;;;;4903907;29;20445;-71
2021/01/19 09:23:56;;;;;;;7.00;2.87;;;4.00;97.30;;;;;;4903131;29;20468;-70
2021/01/19 09:26:22;;;;;;;7.30;3.00;;;4.00;97.30;;;;;;4903979;29;20424;-72
2021/01/19 09:28:48;;;;;;;4.80;3.30;;;4.00;97.30;;;;;;4903873;29;20495;-72
2021/01/19 09:31:24;;;;;;;5.73;2.50;;;4.00;97.30;;;;;;4902493;29;20441;-71
2021/01/19 09:33:53;;;;;;;3.40;2.77;;;4.00;97.30;;;;;;4902569;29;21035;-71
2021/01/19 09:36:20;;;;;;;6.17;3.13;;;4.00;97.30;;;;;;4902731;29;20429;-71
2021/01/19 09:38:52;;;;;;;6.33;2.80;;;4.00;97.30;;;;;;4903757;29;20426;-70
2021/01/19 09:41:21;;;;;;;16.43;2.87;;;4.00;97.30;;;;;;4902375;29;20460;-71
2021/01/19 09:43:55;;;;;;;5.73;2.33;;;4.00;97.30;;;;;;4904062;29;20432;-71
2021/01/19 09:46:26;;;;;;;6.53;3.10;;;4.00;97.30;;;;;;4902750;29;20422;-71
2021/01/19 09:48:59;;;;;;;3.23;2.43;;;4.10;97.30;;;;;;4903903;29;20464;-70
2021/01/19 09:51:29;;;;;;;3.60;2.63;;;4.10;97.30;;;;;;4903995;29;20437;-71
2021/01/19 09:53:57;;;;;;;4.10;2.70;;;4.10;97.30;;;;;;4901150;29;20473;-75
2021/01/19 09:56:28;;;;;;;7.53;3.13;;;4.10;97.30;;;;;;4898545;29;20439;-75
2021/01/19 09:59:08;;;;;;;8.30;3.30;;;4.00;97.30;;;;;;4903144;29;20468;-74
2021/01/19 10:01:34;;;;;;;10.40;3.00;;;4.00;97.30;;;;;;4902034;29;20465;-72
2021/01/19 10:04:00;;;;;;;3.53;2.50;;;4.00;97.30;;;;;;4903874;29;20427;-72
2021/01/19 10:06:26;;;;;;;8.33;3.20;;;4.00;97.30;;;;;;4899384;29;20193;-73
2021/01/19 10:08:53;;;;;;;5.60;3.10;;;4.00;97.30;;;;;;4899289;29;20205;-72
2021/01/19 10:11:32;;;;;;;4.40;3.10;;;4.00;97.30;;;;;;4899281;29;20473;-73
2021/01/19 10:14:32;;;;;;;7.17;2.83;;;4.00;97.30;;;;;;4900771;29;20482;-71
2021/01/19 10:16:59;;;;;;;6.53;3.37;;;3.90;97.30;;;;;;4899233;29;20422;-71
2021/01/19 10:19:27;;;;;;;9.50;3.50;;;3.90;97.30;;;;;;4899557;29;21010;-70
2021/01/19 10:21:54;;;;;;;7.47;3.00;;;3.90;97.30;;;;;;4899205;29;20455;-73
2021/01/19 10:24:22;;;;;;;9.67;3.80;;;3.90;97.30;;;;;;4899008;29;20429;-71
2021/01/19 10:27:08;;;;;;;5.73;3.07;;;3.90;97.30;;;;;;4900411;29;20461;-72
2021/01/19 10:29:39;;;;;;;8.40;3.47;;;3.90;97.30;;;;;;4899988;29;20434;-72
2021/01/19 10:32:13;;;;;;;10.80;3.50;;;3.90;97.30;;;;;;4897080;29;20469;-71
2021/01/19 10:34:47;;;;;;;4.03;2.77;;;3.90;97.30;;;;;;4899382;29;20448;-71
2021/01/19 10:37:14;;;;;;;7.27;2.80;;;3.80;97.30;;;;;;4897854;29;20482;-75
2021/01/19 10:39:56;;;;;;;6.80;3.37;;;3.70;97.30;;;;;;4898428;29;20951;-73
2021/01/19 10:42:26;;;;;;;4.93;3.57;;;3.60;97.30;;;;;;4898815;29;20795;-73
2021/01/19 10:45:03;;;;;;;11.80;3.80;;;3.50;97.30;;;;;;4898488;29;20417;-73
2021/01/19 10:47:44;;;;;;;7.57;4.17;;;3.40;97.30;;;;;;4899185;29;20518;-73
2021/01/19 10:50:21;;;;;;;5.43;3.10;;;3.20;97.30;;;;;;4898854;29;20425;-74
2021/01/19 10:53:03;;;;;;;9.03;3.60;;;3.10;97.30;;;;;;4898277;29;20520;-73
2021/01/19 10:55:30;;;;;;;5.10;3.17;;;3.00;97.30;;;;;;4899746;29;20480;-73
2021/01/19 10:57:59;;;;;;;10.27;3.90;;;2.90;97.30;;;;;;4898448;29;20426;-74
2021/01/19 11:00:26;;;;;;;11.30;4.40;;;2.80;97.30;;;;;;4899930;29;20433;-74
2021/01/19 11:02:52;;;;;;;19.13;3.80;;;2.70;97.30;;;;;;4898473;29;20450;-73
2021/01/19 11:05:18;;;;;;;9.60;3.40;;;2.60;97.30;;;;;;4898975;29;20765;-72
2021/01/19 11:07:48;;;;;;;8.43;3.53;;;2.60;97.30;;;;;;4898865;29;20810;-73
2021/01/19 11:10:16;;;;;;;7.00;2.97;;;2.50;97.30;;;;;;4898525;29;20430;-74
2021/01/19 11:12:42;;;;;;;7.23;3.53;;;2.40;97.30;;;;;;4897483;29;20469;-74
2021/01/19 11:15:10;;;;;;;11.57;4.00;;;2.40;97.30;;;;;;4897527;29;20428;-74
2021/01/19 11:17:36;;;;;;;6.20;3.30;;;2.40;97.30;;;;;;4898889;29;20430;-74
2021/01/19 11:20:11;;;;;;;13.63;3.40;;;2.40;97.30;;;;;;4900692;29;20422;-73
2021/01/19 11:22:38;;;;;;;20.17;3.93;;;2.40;97.30;;;;;;4902625;29;20595;-74
2021/01/19 11:25:06;;;;;;;5.40;3.40;;;2.40;97.30;;;;;;4907704;29;20511;-73
2021/01/19 11:27:32;;;;;;;6.90;3.70;;;2.40;97.30;;;;;;4926196;29;20997;-74
2021/01/19 11:29:58;;;;;;;6.57;3.80;;;2.40;97.30;;;;;;4910328;29;20433;-73
2021/01/19 11:32:25;;;;;;;8.50;3.70;;;2.40;97.30;;;;;;4906404;29;21115;-73
2021/01/19 11:34:50;;;;;;;8.33;3.83;;;2.50;97.30;;;;;;4905847;29;20183;-73
2021/01/19 11:37:16;;;;;;;5.60;3.13;;;2.50;97.30;;;;;;4911126;29;20516;-75
2021/01/19 11:39:42;;;;;;;8.33;3.90;;;2.60;97.30;;;;;;4903758;29;20184;-73
2021/01/19 11:42:09;;;;;;;9.97;3.40;;;2.60;97.30;;;;;;4909989;29;20204;-76
2021/01/19 11:44:35;;;;;;;7.33;3.50;;;2.70;97.30;;;;;;4905827;29;20421;-74
2021/01/19 11:47:02;;;;;;;4.60;2.80;;;2.70;97.30;;;;;;4907470;29;20444;-74
2021/01/19 11:49:28;;;;;;;15.57;3.77;;;2.80;97.30;;;;;;4910140;29;20267;-74
2021/01/19 11:51:55;;;;;;;5.90;3.43;;;2.80;97.30;;;;;;4900581;29;20988;-74
2021/01/19 11:54:21;;;;;;;5.60;2.90;;;2.80;97.30;;;;;;4902875;29;20524;-74
2021/01/19 11:56:49;;;;;;;5.73;2.80;;;2.80;97.30;;;;;;4906538;29;20831;-74
2021/01/19 11:59:19;;;;;;;5.20;3.00;;;2.90;97.30;;;;;;4902062;29;20496;-74
2021/01/19 12:01:54;;;;;;;5.23;2.77;;;2.90;97.30;;;;;;4905144;29;20465;-74
2021/01/19 12:04:21;;;;;;;6.47;2.93;;;2.90;97.30;;;;;;4896204;29;20814;-75
2021/01/19 12:06:47;;;;;;;5.40;3.20;;;2.80;97.30;;;;;;4896865;29;20512;-75
2021/01/19 12:09:13;;;;;;;4.60;2.70;;;2.80;97.30;;;;;;4897360;29;20544;-75
2021/01/19 12:11:43;;;;;;;6.07;2.70;;;2.80;97.30;;;;;;4897268;29;20437;-74
2021/01/19 12:14:13;;;;;;;6.00;2.40;;;2.80;97.30;;;;;;4896869;29;20421;-75
2021/01/19 12:16:40;;;;;;;5.13;3.07;;;2.80;97.30;;;;;;4893570;29;20450;-76
2021/01/19 12:19:15;;;;;;;2.60;2.40;;;2.80;97.30;;;;;;4897274;29;20540;-75
2021/01/19 12:21:47;;;;;;;13.03;2.90;;;2.80;97.30;;;;;;4896952;29;20449;-75
2021/01/19 12:24:13;;;;;;;3.83;3.00;;;2.80;97.30;;;;;;4898168;29;20717;-76
2021/01/19 12:26:39;;;;;;;3.23;2.60;;;2.80;97.30;;;;;;4894805;29;20521;-74
2021/01/19 12:29:04;;;;;;;7.90;3.07;;;2.70;97.30;;;;;;4895873;29;20552;-77
2021/01/19 12:31:30;;;;;;;4.10;2.53;;;2.60;97.30;;;;;;4897180;29;20232;-74
2021/01/19 12:33:56;;;;;;;5.50;2.60;;;2.50;97.30;;;;;;4897122;29;20196;-74
2021/01/19 12:36:21;;;;;;;4.07;2.70;;;2.40;97.30;;;;;;4896214;29;20207;-74
2021/01/19 12:38:48;;;;;;;4.93;2.80;;;2.30;97.30;;;;;;4896422;29;20197;-75
2021/01/19 12:41:16;;;;;;;3.10;2.70;;;2.30;97.30;;;;;;4898355;29;20217;-73
2021/01/19 12:43:42;;;;;;;7.03;2.83;;;2.30;97.30;;;;;;4896561;29;20461;-74
2021/01/19 12:46:12;;;;;;;3.87;2.70;;;2.30;97.30;;;;;;4897342;29;20535;-75
2021/01/19 12:48:38;;;;;;;7.60;3.00;;;2.30;97.30;;;;;;4896659;29;20472;-75
2021/01/19 12:51:05;;;;;;;6.13;2.77;;;2.30;97.30;;;;;;4895880;29;20944;-74
2021/01/19 12:53:31;;;;;;;3.30;2.63;;;2.30;97.30;;;;;;4896912;29;20426;-75
2021/01/19 12:55:57;;;;;;;3.53;2.90;;;2.30;97.30;;;;;;4896906;29;20517;-75
2021/01/19 12:58:23;;;;;;;9.77;3.03;;;2.30;97.30;;;;;;4896351;29;20508;-75
2021/01/19 13:00:49;;;;;;;2.70;2.57;;;2.30;97.30;;;;;;4896549;29;20304;-76
2021/01/19 13:03:20;;;;;;;3.50;2.70;;;2.30;97.30;;;;;;4900691;29;20788;-74
2021/01/19 13:05:47;;;;;;;2.73;2.00;;;2.30;97.30;;;;;;4896181;29;20198;-75
2021/01/19 13:08:13;;;;;;;4.73;2.70;;;2.30;97.30;;;;;;4897141;29;20469;-75
2021/01/19 13:10:39;;;;;;;10.10;2.97;;;2.30;97.30;;;;;;4895361;29;20445;-75
2021/01/19 13:13:04;;;;;;;6.10;3.30;;;2.20;97.30;;;;;;4897350;29;20188;-75
2021/01/19 13:15:30;;;;;;;5.07;3.37;;;2.20;97.30;;;;;;4897108;29;20272;-75
2021/01/19 13:17:58;;;;;;;4.10;2.73;;;2.20;97.30;;;;;;4895669;29;20280;-75
2021/01/19 13:20:23;;;;;;;4.83;3.73;;;2.20;97.30;;;;;;4895859;29;20189;-76
2021/01/19 13:22:49;;;;;;;7.30;3.23;;;2.10;97.30;;;;;;4896268;29;20424;-75
2021/01/19 13:25:16;;;;;;;5.67;2.77;;;2.20;97.30;;;;;;4896454;29;20436;-75
2021/01/19 13:27:41;;;;;;;4.90;2.73;;;2.20;97.30;;;;;;4896306;29;20211;-76
2021/01/19 13:30:08;;;;;;;3.20;2.70;;;2.20;97.30;;;;;;4896288;29;21017;-76
2021/01/19 13:32:34;;;;;;;3.23;2.20;;;2.20;97.30;;;;;;4896359;29;20295;-75
2021/01/19 13:35:00;;;;;;;4.30;2.93;;;2.20;97.30;;;;;;4896357;29;20463;-76
2021/01/19 13:37:25;;;;;;;5.23;2.87;;;2.20;97.30;;;;;;4896547;29;20448;-73
2021/01/19 13:39:51;;;;;;;5.50;3.23;;;2.20;97.30;;;;;;4898314;29;20894;-74
2021/01/19 13:42:19;;;;;;;4.43;2.90;;;2.20;97.30;;;;;;4900556;29;20205;-76
2021/01/19 13:44:45;;;;;;;9.87;3.20;;;2.20;97.30;;;;;;4900422;29;20188;-73
2021/01/19 13:47:11;;;;;;;6.70;3.10;;;2.20;97.30;;;;;;4899844;29;20424;-74
2021/01/19 13:49:36;;;;;;;2.60;2.40;;;2.30;97.30;;;;;;4901325;29;20431;-74
2021/01/19 13:52:02;;;;;;;3.20;2.70;;;2.30;97.30;;;;;;4900376;29;20205;-78
2021/01/19 13:54:28;;;;;;;4.60;2.83;;;2.30;97.30;;;;;;4900513;29;20272;-76
2021/01/19 13:56:57;;;;;;;2.60;2.40;;;2.30;97.30;;;;;;4900077;29;20280;-77
2021/01/19 13:59:23;;;;;;;2.90;2.10;;;2.30;97.30;;;;;;4900095;29;20440;-77
2021/01/19 14:01:49;;;;;;;2.87;2.60;;;2.30;97.30;;;;;;4899769;29;20507;-75
2021/01/19 14:04:16;;;;;;;4.93;2.63;;;2.40;97.30;;;;;;4899910;29;20916;-74
2021/01/19 14:06:45;;;;;;;9.97;2.60;;;2.40;97.30;;;;;;4900403;29;20425;-77
2021/01/19 14:09:11;;;;;;;3.10;2.57;;;2.40;97.30;;;;;;4899952;29;20465;-74
2021/01/19 14:11:38;;;;;;;3.80;2.90;;;2.40;97.30;;;;;;4901195;29;20440;-75
2021/01/19 14:14:15;;;;;;;2.77;2.40;;;2.40;97.30;;;;;;4884490;29;20932;-77
2021/01/19 14:16:42;;;;;;;3.10;2.57;;;2.40;97.30;;;;;;4899549;29;20433;-74
2021/01/19 14:19:08;;;;;;;2.90;2.33;;;2.50;97.30;;;;;;4899829;29;20438;-75
2021/01/19 14:21:33;;;;;;;2.60;2.20;;;2.50;97.30;;;;;;4899654;29;20453;-76
2021/01/19 14:23:59;;;;;;;2.73;2.30;;;2.50;97.30;;;;;;4899751;29;20185;-76
2021/01/19 14:26:28;;;;;;;3.33;2.63;;;2.50;97.30;;;;;;4900463;29;20266;-77
2021/01/19 14:28:54;;;;;;;5.50;2.30;;;2.50;97.30;;;;;;4900504;29;20672;-77
2021/01/19 14:31:20;;;;;;;3.13;2.60;;;2.50;97.30;;;;;;4900778;29;20448;-78
2021/01/19 14:33:47;;;;;;;2.47;2.27;;;2.50;97.30;;;;;;4900430;29;20426;-77
2021/01/19 14:36:17;;;;;;;2.97;2.37;;;2.50;97.30;;;;;;4899736;29;20417;-76
2021/01/19 14:38:43;;;;;;;3.50;2.37;;;2.50;97.30;;;;;;4900658;29;20418;-76
2021/01/19 14:41:09;;;;;;;2.87;2.60;;;2.50;97.30;;;;;;4898972;29;20461;-76
2021/01/19 14:43:35;;;;;;;2.73;2.27;;;2.50;97.30;;;;;;4899244;29;20430;-73
2021/01/19 14:46:00;;;;;;;3.70;3.13;;;2.60;97.30;;;;;;4899082;29;20199;-75
2021/01/19 14:48:26;;;;;;;3.43;2.70;;;2.60;97.30;;;;;;4899044;29;20209;-77
2021/01/19 14:50:52;;;;;;;2.60;1.97;;;2.60;97.30;;;;;;4897092;29;20292;-75
2021/01/19 14:53:18;;;;;;;4.40;2.40;;;2.50;97.30;;;;;;4898196;29;20434;-75
2021/01/19 14:55:44;;;;;;;3.70;2.27;;;2.50;97.30;;;;;;4899175;29;20426;-78
2021/01/19 14:58:10;;;;;;;4.33;2.37;;;2.50;97.30;;;;;;4898840;29;20197;-76
2021/01/19 15:00:37;;;;;;;3.17;2.30;;;2.50;97.30;;;;;;4898522;29;20489;-75
2021/01/19 15:03:03;;;;;;;3.63;2.57;;;2.50;97.30;;;;;;4898801;29;20974;-74
2021/01/19 15:05:29;;;;;;;2.17;2.07;;;2.50;97.30;;;;;;4899115;29;20525;-74
2021/01/19 15:07:59;;;;;;;2.60;2.40;;;2.50;97.30;;;;;;4898875;29;20556;-72
2021/01/19 15:10:26;;;;;;;3.83;2.23;;;2.50;97.30;;;;;;4898571;29;20942;-73
2021/01/19 15:12:55;;;;;;;3.53;2.20;;;2.50;97.30;;;;;;4898746;29;20831;-73
2021/01/19 15:15:22;;;;;;;2.90;2.40;;;2.50;97.30;;;;;;4898978;29;20508;-74
2021/01/19 15:17:50;;;;;;;2.43;2.17;;;2.50;97.30;;;;;;4898702;29;20427;-74
2021/01/19 15:20:16;;;;;;;2.97;2.40;;;2.50;97.30;;;;;;4898436;29;20928;-73
2021/01/19 15:22:42;;;;;;;2.33;2.17;;;2.50;97.30;;;;;;4898542;29;20446;-74
2021/01/19 15:25:08;;;;;;;3.70;2.00;;;2.50;97.30;;;;;;4909395;29;20751;-73
2021/01/19 15:27:34;;;;;;;4.10;2.60;;;2.50;97.30;;;;;;4910330;29;20241;-75
2021/01/19 15:30:02;;;;;;;5.83;2.50;;;2.50;97.30;;;;;;4900159;29;20508;-75
2021/01/19 15:32:28;;;;;;;4.40;2.27;;;2.50;97.30;;;;;;4898479;29;20197;-74
2021/01/19 15:34:55;;;;;;;2.50;2.30;;;2.50;97.30;;;;;;4898529;29;20425;-74
2021/01/19 15:37:20;;;;;;;2.37;2.17;;;2.50;97.30;;;;;;4898408;29;20418;-75
2021/01/19 15:39:46;;;;;;;5.33;2.50;;;2.50;97.30;;;;;;4898412;29;20433;-73
2021/01/19 15:42:12;;;;;;;2.20;2.07;;;2.50;97.30;;;;;;4897795;29;20205;-73
2021/01/19 15:44:39;;;;;;;3.60;2.37;;;2.50;97.30;;;;;;4899651;29;20477;-74
2021/01/19 15:47:05;;;;;;;2.93;2.20;;;2.50;97.30;;;;;;4898964;29;20181;-74
2021/01/19 15:49:31;;;;;;;5.00;2.80;;;2.50;97.30;;;;;;4897846;29;20971;-73
2021/01/19 15:51:56;;;;;;;3.47;3.10;;;2.50;97.30;;;;;;4897095;29;20502;-74
2021/01/19 15:54:22;;;;;;;3.50;2.87;;;2.60;97.30;;;;;;4897234;29;20480;-74
2021/01/19 15:56:50;;;;;;;3.10;2.40;;;2.60;97.30;;;;;;4897886;29;20185;-74
2021/01/19 15:59:19;;;;;;;3.07;2.60;;;2.60;97.30;;;;;;4897844;29;20220;-74
2021/01/19 16:01:46;;;;;;;4.07;2.53;;;2.60;97.30;;;;;;4897318;29;20493;-74
2021/01/19 16:04:11;;;;;;;2.50;2.40;;;2.60;97.30;;;;;;4898003;29;20424;-74
2021/01/19 16:06:37;;;;;;;2.70;2.40;;;2.60;97.30;;;;;;4897335;29;20413;-74
2021/01/19 16:09:05;;;;;;;3.13;2.50;;;2.70;97.30;;;;;;4897361;29;20209;-74
2021/01/19 16:11:31;;;;;;;4.30;2.27;;;2.70;97.30;;;;;;4897199;29;20952;-74
2021/01/19 16:13:57;;;;;;;4.97;2.70;;;2.70;97.30;;;;;;4897505;29;20464;-74
2021/01/19 16:16:25;;;;;;;3.63;2.60;;;2.70;97.30;;;;;;4897196;29;20422;-74
2021/01/19 16:18:52;;;;;;;4.10;2.23;;;2.70;97.30;;;;;;4897228;29;20437;-75
2021/01/19 16:21:19;;;;;;;2.40;2.00;;;2.80;97.30;;;;;;4898107;29;20923;-73
2021/01/19 16:23:46;;;;;;;2.93;2.53;;;2.80;97.30;;;;;;4897079;29;20460;-74
2021/01/19 16:26:16;;;;;;;14.10;3.17;;;2.90;97.30;;;;;;4897264;29;20916;-74
2021/01/19 16:28:43;;;;;;;3.47;2.53;;;2.90;97.30;;;;;;4897180;29;20512;-74
2021/01/19 16:31:20;;;;;;;3.30;2.97;;;2.90;97.30;;;;;;4896978;29;20490;-74
2021/01/19 16:33:47;;;;;;;3.83;2.80;;;3.00;97.30;;;;;;4896998;29;20421;-74
2021/01/19 16:36:13;;;;;;;4.07;2.63;;;3.00;97.30;;;;;;4897295;29;20432;-73
2021/01/19 16:38:40;;;;;;;3.33;2.53;;;3.10;97.30;;;;;;4896976;29;20429;-74
2021/01/19 16:41:07;;;;;;;3.33;2.60;;;3.20;97.30;;;;;;4896787;29;20449;-73
2021/01/19 16:43:33;;;;;;;2.70;2.03;;;3.20;97.30;;;;;;4897050;29;20432;-74
2021/01/19 16:46:00;;;;;;;2.23;2.03;;;3.20;97.30;;;;;;4896940;29;20429;-74
2021/01/19 16:48:26;;;;;;;2.87;1.90;;;3.30;97.30;;;;;;4898061;29;20461;-73
2021/01/19 16:50:52;;;;;;;2.30;2.00;;;3.30;97.30;;;;;;4896527;29;20872;-74
2021/01/19 16:53:20;;;;;;;3.00;2.33;;;3.40;97.30;;;;;;4897956;29;20524;-74
2021/01/19 16:55:47;;;;;;;2.93;1.90;;;3.40;97.30;;;;;;4896924;29;20425;-74
2021/01/19 16:58:13;;;;;;;3.03;2.10;;;3.40;97.30;;;;;;4896900;29;20508;-73
2021/01/19 17:00:40;;;;;;;3.63;2.60;;;3.40;97.30;;;;;;4878001;29;20454;-74
2021/01/19 17:03:07;;;;;;;5.33;2.87;;;3.50;97.30;;;;;;4878056;29;20818;-74
2021/01/19 17:05:36;;;;;;;2.90;2.50;;;3.50;97.30;;;;;;4879264;29;20491;-74
2021/01/19 17:08:06;;;;;;;3.37;2.83;;;3.50;97.30;;;;;;4877841;29;20474;-74
2021/01/19 17:10:33;;;;;;;6.50;3.10;;;3.50;97.30;;;;;;4879021;29;20415;-74
2021/01/19 17:12:59;;;;;;;6.53;2.30;;;3.60;97.30;;;;;;4877835;29;20426;-73
2021/01/19 17:15:25;;;;;;;3.30;2.50;;;3.60;97.30;;;;;;4879741;29;20427;-73
2021/01/19 17:17:52;;;;;;;2.47;2.20;;;3.70;97.30;;;;;;4897542;29;20445;-74
2021/01/19 17:20:18;;;;;;;3.10;2.50;;;3.70;97.30;;;;;;4881602;29;20232;-74
2021/01/19 17:22:47;;;;;;;7.00;3.70;;;3.80;97.30;;;;;;4882195;29;20434;-74
2021/01/19 17:25:14;;;;;;;7.40;4.10;;;3.90;97.30;;;;;;4896440;29;20253;-74
2021/01/19 17:27:40;;;;;;;39.83;11.80;;;3.90;97.30;;;;;;4881717;29;20478;-74
2021/01/19 17:30:07;;;;;;;61.67;15.37;;;4.00;97.30;;;;;;4891161;29;20417;-74
2021/01/19 17:32:33;;;;;;;54.50;17.30;;;4.10;97.30;;;;;;4899289;29;20937;-74
2021/01/19 17:35:00;;;;;;;106.77;32.90;;;4.10;97.30;;;;;;4899890;29;20480;-75
2021/01/19 17:37:26;;;;;;;115.03;32.57;;;4.10;97.30;;;;;;4901206;29;20412;-76
2021/01/19 17:39:53;;;;;;;79.87;20.90;;;4.10;97.30;;;;;;4899435;29;20485;-79
2021/01/19 17:42:19;;;;;;;106.80;29.40;;;4.10;97.30;;;;;;4901565;29;20520;-75
2021/01/19 17:44:46;;;;;;;21.00;10.70;;;4.10;97.30;;;;;;4900104;29;20517;-77
2021/01/19 17:47:16;;;;;;;11.53;3.60;;;4.10;97.30;;;;;;4899997;29;20182;-76
2021/01/19 17:49:44;;;;;;;4.73;2.97;;;4.20;97.30;;;;;;4899695;29;20764;-77
2021/01/19 17:52:10;;;;;;;3.27;2.87;;;4.20;97.30;;;;;;4898708;29;20456;-76
2021/01/19 17:54:36;;;;;;;3.90;2.80;;;4.30;97.30;;;;;;4899090;29;20444;-75
2021/01/19 17:57:04;;;;;;;4.33;2.97;;;4.30;97.30;;;;;;4899541;29;20429;-75
2021/01/19 17:59:30;;;;;;;4.03;2.83;;;4.30;97.30;;;;;;4899485;29;20425;-76
2021/01/19 18:01:56;;;;;;;4.27;3.17;;;4.30;97.30;;;;;;4900620;29;20455;-76
2021/01/19 18:04:22;;;;;;;3.70;2.67;;;4.30;97.30;;;;;;4899434;29;20486;-76
2021/01/19 18:06:50;;;;;;;6.33;3.30;;;4.30;97.30;;;;;;4898894;29;20461;-76
2021/01/19 18:09:16;;;;;;;3.50;3.13;;;4.30;97.30;;;;;;4900303;29;20472;-75
2021/01/19 18:11:46;;;;;;;3.17;2.80;;;4.30;97.30;;;;;;4898243;29;20441;-76
2021/01/19 18:14:12;;;;;;;4.23;2.93;;;4.30;97.30;;;;;;4900318;29;20203;-76
2021/01/19 18:16:39;;;;;;;4.10;3.20;;;4.30;97.30;;;;;;4900367;29;20531;-75
2021/01/19 18:19:07;;;;;;;5.60;3.40;;;4.30;97.30;;;;;;4898761;29;20468;-75
2021/01/19 18:21:34;;;;;;;2.80;2.27;;;4.30;97.30;;;;;;4898296;29;20465;-75
2021/01/19 18:24:00;;;;;;;3.53;3.07;;;4.30;97.30;;;;;;4900231;29;20426;-76
2021/01/19 18:26:37;;;;;;;4.40;3.10;;;4.30;97.30;;;;;;4896827;29;20481;-77
2021/01/19 18:29:04;;;;;;;6.43;3.53;;;4.30;97.30;;;;;;4898753;29;20545;-75
2021/01/19 18:31:39;;;;;;;4.10;3.00;;;4.40;97.30;;;;;;4898721;29;20826;-76
2021/01/19 18:34:05;;;;;;;4.43;3.37;;;4.40;97.30;;;;;;4899660;29;20439;-76
2021/01/19 18:36:31;;;;;;;3.13;3.00;;;4.50;97.30;;;;;;4900695;29;20426;-75
2021/01/19 18:38:56;;;;;;;3.53;2.57;;;4.50;97.30;;;;;;4899449;29;20185;-75
2021/01/19 18:41:23;;;;;;;4.50;3.03;;;4.50;97.30;;;;;;4898996;29;20574;-75
2021/01/19 18:43:49;;;;;;;5.50;3.27;;;4.50;97.30;;;;;;4899201;29;20235;-75
2021/01/19 18:46:15;;;;;;;3.10;2.70;;;4.50;97.30;;;;;;4899195;29;20439;-76
2021/01/19 18:48:41;;;;;;;4.60;3.00;;;4.50;97.30;;;;;;4899034;29;20477;-75
2021/01/19 18:51:21;;;;;;;3.80;3.10;;;4.60;97.30;;;;;;4898711;29;20201;-75
2021/01/19 18:53:47;;;;;;;4.50;2.93;;;4.60;97.30;;;;;;4898107;29;20532;-76
2021/01/19 18:56:18;;;;;;;4.17;3.03;;;4.60;97.30;;;;;;4900280;29;20904;-75
2021/01/19 18:58:43;;;;;;;3.37;3.20;;;4.70;97.30;;;;;;4898658;29;20430;-75
2021/01/19 19:01:09;;;;;;;4.70;3.40;;;4.70;97.30;;;;;;4898551;29;20824;-75
2021/01/19 19:03:35;;;;;;;5.07;4.10;;;4.80;97.30;;;;;;4899977;29;20177;-75